Strona główna
METAR-TAF:

METAR-TAF

Lotnisko :

Cazaux, Francja

Szerokość geograficzna: 44-32N, Długość geograficzna: 001-08W, wysokość: 25 m

Aktualna obserwacja pogody

Raport powstał 21 minut temu, godzina 19:30 UTC
Wiatr 8 kt od zachód, zmienny między zachodnio-południowy zachód i zachodnio-północny zachód
Temperatura 12°C
Wilgotność 76%
Ciśnienie 1021 hPa
Widzialność 10 km lub więcej
Przerywane chmury na wysokości 2800 ft
Przerywane chmury na wysokości 3300 ft

METAR: LFBC 081930Z AUTO 27008KT 240V300 9999 BKN028 BKN033 12/08 Q1021

czas: 20:51 (19:51 UTC)


TAF: brakujący

Obserwacja i prognoza pogody dla ponad 4000 lotnisk (raport METAR i TAF).

Dostępne stacje oznaczono żółtymi i czerwonymi punktami na mapie.

Najedź kursorem aby zobaczyć nazwę stacji.

Kliknij aby zobaczyć obserwacje i prognozy pogody.

Aby zmienić mapę: kliknij na zielony przycisk z czarnym krzyżykiem, aby powiększyć; na zielony przycisk z myślnikiem, aby pomniejszyć; na zielone strzałki, aby przejść do map sąsiednich.


METAR-TAF: